Time;durP1;ratioP1;P1;durP2;ratioP2;P2;SDS_P1;SDS_P2;PMS_P1;PMS_P2;Temp;Humidity;BMP_temperature;BMP_pressure;BME280_temperature;BME280_humidity;BME280_pressure;Samples;Min_cycle;Max_cycle;Signal;HPM_P1;HPM_P2
2024/03/12 00:00:16;;;;;;;;;;;;;;;-144.99;100.00;52488.84;5008088;28;20025;-66
2024/03/12 00:02:44;;;;;;;;;;;;;;;-144.99;100.00;52466.44;5010546;28;19950;-66
2024/03/12 00:05:14;;;;;;;;;;;;;;;-144.99;100.00;52492.94;5001204;28;20033;-66
2024/03/12 00:07:41;;;;;;;;;;;;;;;-144.99;100.00;52521.47;5002842;28;20049;-66
2024/03/12 00:10:09;;;;;;;;;;;;;;;-144.99;100.00;52497.00;5002396;28;20010;-66
2024/03/12 00:12:36;;;;;;;;;;;;;;;-144.99;100.00;52511.28;5002017;28;19983;-66
2024/03/12 00:15:05;;;;;;;;;;;;;;;-144.99;100.00;52537.78;5004244;28;19983;-66
2024/03/12 00:17:32;;;;;;;;;;;;;;;-144.99;100.00;52492.94;5010088;28;19944;-66
2024/03/12 00:19:59;;;;;;;;;;;;;;;-144.99;100.00;52460.31;5003395;28;19957;-64
2024/03/12 00:22:26;;;;;;;;;;;;;;;-144.99;100.00;52505.16;5004702;28;19945;-64
2024/03/12 00:24:52;;;;;;;;;;;;;;;-144.99;100.00;52448.09;5010586;28;20138;-63
2024/03/12 00:27:20;;;;;;;;;;;;;;;-144.99;100.00;52450.13;5007263;28;19941;-67
2024/03/12 00:29:46;;;;;;;;;;;;;;;-144.99;100.00;52472.56;5009886;28;20009;-66
2024/03/12 00:32:17;;;;;;;;;;;;;;;-144.99;100.00;52476.63;5008032;28;20344;-66
2024/03/12 00:34:43;;;;;;;;;;;;;;;-144.99;100.00;52488.84;5010114;28;19958;-67
2024/03/12 00:37:10;;;;;;;;;;;;;;;-144.99;100.00;52460.31;5009739;28;19936;-64
2024/03/12 00:39:35;;;;;;;;;;;;;;;-144.99;100.00;52525.56;5003482;28;20050;-67
2024/03/12 00:42:02;;;;;;;;;;;;;;;-144.99;100.00;52448.09;5002593;28;20392;-68
2024/03/12 00:44:31;;;;;;;;;;;;;;;-144.99;100.00;52488.84;5008089;28;19939;-68
2024/03/12 00:46:57;;;;;;;;;;;;;;;-144.99;100.00;52505.16;5010449;28;19939;-68
2024/03/12 00:49:25;;;;;;;;;;;;;;;-144.99;100.00;52509.25;5006728;28;20255;-68
2024/03/12 00:51:52;;;;;;;;;;;;;;;-144.99;100.00;52494.97;5004847;28;20030;-67
2024/03/12 00:54:19;;;;;;;;;;;;;;;-144.99;100.00;52517.41;5003207;28;19947;-68
2024/03/12 00:56:46;;;;;;;;;;;;;;;-144.99;100.00;52476.63;5001712;28;19996;-65
2024/03/12 00:59:14;;;;;;;;;;;;;;;-144.99;100.00;52492.94;5004500;28;20001;-67
2024/03/12 01:01:42;;;;;;;;;;;;;;;-144.99;100.00;52497.00;5007919;28;20371;-65
2024/03/12 01:04:09;;;;;;;;;;;;;;;-144.99;100.00;52486.81;5002723;28;20396;-65
2024/03/12 01:06:35;;;;;;;;;;;;;;;-144.99;100.00;52472.56;5009569;28;20438;-66
2024/03/12 01:09:06;;;;;;;;;;;;;;;-144.99;100.00;52501.09;4997829;28;20459;-66
2024/03/12 01:11:32;;;;;;;;;;;;;;;-144.99;100.00;52509.25;5008398;28;20404;-66
2024/03/12 01:13:59;;;;;;;;;;;;;;;-144.99;100.00;52482.75;5010055;28;19942;-65
2024/03/12 01:16:26;;;;;;;;;;;;;;;-144.99;100.00;52480.72;5009749;28;20256;-66
2024/03/12 01:18:54;;;;;;;;;;;;;;;-144.99;100.00;52492.94;5004170;28;20348;-65
2024/03/12 01:21:21;;;;;;;;;;;;;;;-144.99;100.00;52480.72;5010035;28;19955;-63
2024/03/12 01:23:48;;;;;;;;;;;;;;;-144.99;100.00;52494.97;5009690;28;20042;-64
2024/03/12 01:26:15;;;;;;;;;;;;;;;-144.99;100.00;52497.00;5009215;28;19942;-64
2024/03/12 01:28:42;;;;;;;;;;;;;;;-144.99;100.00;52492.94;4998816;28;20306;-64
2024/03/12 01:31:09;;;;;;;;;;;;;;;-144.99;100.00;52525.56;5009325;28;19953;-64
2024/03/12 01:33:35;;;;;;;;;;;;;;;-144.99;100.00;52448.09;5009182;28;19962;-65
2024/03/12 01:36:18;;;;;;;;;;;;;;;-144.99;100.00;52480.72;5007553;28;20003;-67
2024/03/12 01:38:48;;;;;;;;;;;;;;;-144.99;100.00;52488.84;5003184;28;19946;-67
2024/03/12 01:41:15;;;;;;;;;;;;;;;-144.99;100.00;52492.94;5007336;28;19962;-65
2024/03/12 01:43:41;;;;;;;;;;;;;;;-144.99;100.00;52501.09;5008768;28;20068;-65
2024/03/12 01:46:08;;;;;;;;;;;;;;;-144.99;100.00;52509.25;5001983;28;20487;-65
2024/03/12 01:48:35;;;;;;;;;;;;;;;-144.99;100.00;52476.63;5007106;28;19973;-66
2024/03/12 01:51:02;;;;;;;;;;;;;;;-144.99;100.00;52513.31;4999180;28;19957;-67
2024/03/12 01:53:30;;;;;;;;;;;;;;;-144.99;100.00;52466.44;5008789;28;19947;-66
2024/03/12 01:55:56;;;;;;;;;;;;;;;-144.99;100.00;52460.31;5008698;28;20021;-67
2024/03/12 01:58:23;;;;;;;;;;;;;;;-144.99;100.00;52497.00;5007754;28;20508;-61
2024/03/12 02:00:49;;;;;;;;;;;;;;;-144.99;100.00;52505.16;5006973;28;20468;-61
2024/03/12 02:03:18;;;;;;;;;;;;;;;-144.99;100.00;52480.72;5008343;28;19984;-69
2024/03/12 02:05:46;;;;;;;;;;;;;;;-144.99;100.00;52482.75;5000878;28;19952;-69
2024/03/12 02:08:13;;;;;;;;;;;;;;;-144.99;100.00;52492.94;5002453;28;19958;-69
2024/03/12 02:10:41;;;;;;;;;;;;;;;-144.99;100.00;52503.13;5008049;28;20031;-69
2024/03/12 02:13:08;;;;;;;;;;;;;;;-144.99;100.00;52497.00;4997711;28;19936;-69
2024/03/12 02:15:35;;;;;;;;;;;;;;;-144.99;100.00;52484.78;5006119;28;19947;-69
2024/03/12 02:18:01;;;;;;;;;;;;;;;-144.99;100.00;52460.31;5003253;28;20545;-69
2024/03/12 02:20:27;;;;;;;;;;;;;;;-144.99;100.00;52482.75;5000964;28;20047;-70
2024/03/12 02:22:55;;;;;;;;;;;;;;;-144.99;100.00;52499.06;5008043;28;19955;-69
2024/03/12 02:25:23;;;;;;;;;;;;;;;-144.99;100.00;52472.56;5001571;28;20374;-65
2024/03/12 02:27:50;;;;;;;;;;;;;;;-144.99;100.00;52533.69;5008188;28;19975;-64
2024/03/12 02:30:16;;;;;;;;;;;;;;;-144.99;100.00;52476.63;5005336;28;20012;-63
2024/03/12 02:32:46;;;;;;;;;;;;;;;-144.99;100.00;52521.47;5000338;28;19982;-64
2024/03/12 02:35:13;;;;;;;;;;;;;;;-144.99;100.00;52472.56;5005917;28;19946;-64
2024/03/12 02:37:40;;;;;;;;;;;;;;;-144.99;100.00;52509.25;5005666;28;19942;-64
2024/03/12 02:40:08;;;;;;;;;;;;;;;-144.99;100.00;52468.47;5002140;28;19956;-64
2024/03/12 02:42:37;;;;;;;;;;;;;;;-144.99;100.00;52499.06;4997141;28;19938;-64
2024/03/12 02:45:04;;;;;;;;;;;;;;;-144.99;100.00;52486.81;5006873;28;19944;-64
2024/03/12 02:47:30;;;;;;;;;;;;;;;-144.99;100.00;52503.13;5008512;28;20312;-64
2024/03/12 02:49:57;;;;;;;;;;;;;;;-144.99;100.00;52525.56;5003592;28;19960;-64
2024/03/12 02:52:24;;;;;;;;;;;;;;;-144.99;100.00;52484.78;5004663;28;19983;-68
2024/03/12 02:54:51;;;;;;;;;;;;;;;-144.99;100.00;52509.25;5007922;28;20084;-67
2024/03/12 02:57:21;;;;;;;;;;;;;;;-144.99;100.00;52505.16;5007769;28;19938;-67
2024/03/12 02:59:49;;;;;;;;;;;;;;;-144.99;100.00;52492.94;5007041;28;20037;-68
2024/03/12 03:02:16;;;;;;;;;;;;;;;-144.99;100.00;52462.34;5004693;28;20480;-68
2024/03/12 03:04:42;;;;;;;;;;;;;;;-144.99;100.00;52492.94;5003893;28;19979;-68
2024/03/12 03:07:10;;;;;;;;;;;;;;;-144.99;100.00;52529.63;5002021;28;19941;-67
2024/03/12 03:09:37;;;;;;;;;;;;;;;-144.99;100.00;52525.56;5003892;28;19967;-67
2024/03/12 03:12:04;;;;;;;;;;;;;;;-144.99;100.00;52476.63;4998441;28;19943;-67
2024/03/12 03:14:31;;;;;;;;;;;;;;;-144.99;100.00;52513.31;4998890;28;20314;-68
2024/03/12 03:16:59;;;;;;;;;;;;;;;-144.99;100.00;52456.25;5000428;28;20028;-68
2024/03/12 03:19:25;;;;;;;;;;;;;;;-144.99;100.00;52519.44;5008194;28;20066;-68
2024/03/12 03:21:52;;;;;;;;;;;;;;;-144.99;100.00;52558.16;5004075;28;20030;-66
2024/03/12 03:24:18;;;;;;;;;;;;;;;-144.99;100.00;52507.19;5003599;28;20012;-67
2024/03/12 03:26:44;;;;;;;;;;;;;;;-144.99;100.00;52517.41;5001866;28;20067;-67
2024/03/12 03:29:12;;;;;;;;;;;;;;;-144.99;100.00;52501.09;5004253;28;19958;-67
2024/03/12 03:31:41;;;;;;;;;;;;;;;-144.99;100.00;52497.00;5007589;28;19956;-68
2024/03/12 03:34:10;;;;;;;;;;;;;;;-144.99;100.00;52486.81;5001483;28;19977;-66
2024/03/12 03:36:39;;;;;;;;;;;;;;;-144.99;100.00;52505.16;5009239;28;19943;-68
2024/03/12 03:39:05;;;;;;;;;;;;;;;-144.99;100.00;52533.69;5011515;28;19944;-67
2024/03/12 03:41:32;;;;;;;;;;;;;;;-144.99;100.00;52529.63;5011272;28;20046;-68
2024/03/12 03:43:59;;;;;;;;;;;;;;;-144.99;100.00;52513.31;5007231;28;19941;-71
2024/03/12 03:46:25;;;;;;;;;;;;;;;-144.99;100.00;52521.47;5006187;28;20027;-70
2024/03/12 03:48:52;;;;;;;;;;;;;;;-144.99;100.00;52517.41;5011667;28;20000;-70
2024/03/12 03:51:19;;;;;;;;;;;;;;;-144.99;100.00;52497.00;5011616;28;19951;-63
2024/03/12 03:53:46;;;;;;;;;;;;;;;-144.99;100.00;52533.69;5011751;28;20002;-63
2024/03/12 03:56:15;;;;;;;;;;;;;;;-144.99;100.00;52488.84;5007094;28;20035;-63
2024/03/12 03:58:43;;;;;;;;;;;;;;;-144.99;100.00;52552.03;5009054;28;19940;-64
2024/03/12 04:01:10;;;;;;;;;;;;;;;-144.99;100.00;52521.47;5006590;28;20290;-64
2024/03/12 04:03:36;;;;;;;;;;;;;;;-144.99;100.00;52492.94;5010095;28;20323;-64
2024/03/12 04:06:03;;;;;;;;;;;;;;;-144.99;100.00;52537.78;5006395;28;20573;-66
2024/03/12 04:08:31;;;;;;;;;;;;;;;-144.99;100.00;52505.16;5010593;28;20072;-66
2024/03/12 04:10:58;;;;;;;;;;;;;;;-144.99;100.00;52533.69;5008728;28;20056;-66
2024/03/12 04:13:24;;;;;;;;;;;;;;;-144.99;100.00;52517.41;5010824;28;19987;-73
2024/03/12 04:15:51;;;;;;;;;;;;;;;-144.99;100.00;52543.91;5003194;28;19942;-71
2024/03/12 04:18:18;;;;;;;;;;;;;;;-144.99;100.00;52547.97;5003988;28;19973;-69
2024/03/12 04:20:45;;;;;;;;;;;;;;;-144.99;100.00;52501.09;5007865;28;19957;-67
2024/03/12 04:23:11;;;;;;;;;;;;;;;-144.99;100.00;52521.47;5004869;28;20056;-67
2024/03/12 04:25:40;;;;;;;;;;;;;;;-144.99;100.00;52521.47;5000815;28;19987;-67
2024/03/12 04:28:09;;;;;;;;;;;;;;;-144.99;100.00;52545.94;5005681;28;20417;-67
2024/03/12 04:30:38;;;;;;;;;;;;;;;-144.99;100.00;52492.94;5005595;28;19982;-67
2024/03/12 04:33:06;;;;;;;;;;;;;;;-144.99;100.00;52525.56;5003945;28;19955;-67
2024/03/12 04:35:32;;;;;;;;;;;;;;;-144.99;100.00;52480.72;5002124;28;20013;-67
2024/03/12 04:37:59;;;;;;;;;;;;;;;-144.99;100.00;52492.94;5008475;28;20020;-64
2024/03/12 04:40:26;;;;;;;;;;;;;;;-144.99;100.00;52505.16;5007840;28;19955;-67
2024/03/12 04:42:54;;;;;;;;;;;;;;;-144.99;100.00;52482.75;5000165;28;19940;-67
2024/03/12 04:45:21;;;;;;;;;;;;;;;-144.99;100.00;52478.66;5002093;28;19932;-67
2024/03/12 04:47:47;;;;;;;;;;;;;;;-144.99;100.00;52517.41;5003132;28;20303;-68
2024/03/12 04:50:15;;;;;;;;;;;;;;;-144.99;100.00;52533.69;5009468;28;19987;-68
2024/03/12 04:52:41;;;;;;;;;;;;;;;-144.99;100.00;52509.25;5010046;28;20263;-68
2024/03/12 04:55:08;;;;;;;;;;;;;;;-144.99;100.00;52521.47;5003661;28;20008;-66
2024/03/12 04:57:35;;;;;;;;;;;;;;;-144.99;100.00;52505.16;5009755;28;19960;-67
2024/03/12 05:00:13;;;;;;;;;;;;;;;-144.99;100.00;52529.63;5007962;28;19955;-71
2024/03/12 05:02:39;;;;;;;;;;;;;;;-144.99;100.00;52509.25;5010047;28;20008;-72
2024/03/12 05:05:07;;;;;;;;;;;;;;;-144.99;100.00;52505.16;5010636;28;19948;-73
2024/03/12 05:07:34;;;;;;;;;;;;;;;-144.99;100.00;52507.19;5010379;28;19941;-72
2024/03/12 05:10:00;;;;;;;;;;;;;;;-144.99;100.00;52545.94;5004933;28;20056;-73
2024/03/12 05:12:26;;;;;;;;;;;;;;;-144.99;100.00;52501.09;5007719;28;20052;-72
2024/03/12 05:14:53;;;;;;;;;;;;;;;-144.99;100.00;52521.47;4998923;28;20376;-73
2024/03/12 05:17:21;;;;;;;;;;;;;;;-144.99;100.00;52492.94;5009782;28;19983;-66
2024/03/12 05:19:48;;;;;;;;;;;;;;;-144.99;100.00;52545.94;5006919;28;20308;-66
2024/03/12 05:22:16;;;;;;;;;;;;;;;-144.99;100.00;52529.63;5004417;28;19945;-65
2024/03/12 05:24:42;;;;;;;;;;;;;;;-144.99;100.00;52509.25;5006487;28;19976;-65
2024/03/12 05:27:09;;;;;;;;;;;;;;;-144.99;100.00;52505.16;5000732;28;20036;-65
2024/03/12 05:29:42;;;;;;;;;;;;;;;-144.99;100.00;52529.63;5009031;28;19973;-66
2024/03/12 05:32:17;;;;;;;;;;;;;;;-144.99;100.00;52521.47;5006371;28;20041;-67
2024/03/12 05:34:47;;;;;;;;;;;;;;;-144.99;100.00;52484.78;5009343;28;19957;-69
2024/03/12 05:37:28;;;;;;;;;;;;;;;-144.99;100.00;52517.41;5006761;28;19955;-69
2024/03/12 05:40:11;;;;;;;;;;;;;;;-144.99;100.00;52478.66;5000790;28;19954;-69
2024/03/12 05:48:09;;;;;;;;;;;;;;;-144.99;100.00;52456.25;5004070;28;20002;-70
2024/03/12 05:50:37;;;;;;;;;;;;;;;-144.99;100.00;52517.41;5008660;28;19963;-70
2024/03/12 05:53:04;;;;;;;;;;;;;;;-144.99;100.00;52468.47;5006028;28;20020;-72
2024/03/12 05:55:30;;;;;;;;;;;;;;;-144.99;100.00;52488.84;5008725;28;19997;-71
2024/03/12 05:57:57;;;;;;;;;;;;;;;-144.99;100.00;52488.84;5007934;28;19947;-69
2024/03/12 06:00:23;;;;;;;;;;;;;;;-144.99;100.00;52505.16;5009375;28;20074;-68
2024/03/12 06:02:49;;;;;;;;;;;;;;;-144.99;100.00;52537.78;5006208;28;19991;-68
2024/03/12 06:05:16;;;;;;;;;;;;;;;-144.99;100.00;52497.00;4996824;28;20187;-68
2024/03/12 06:07:45;;;;;;;;;;;;;;;-144.99;100.00;52476.63;4999562;28;19944;-68
2024/03/12 06:10:12;;;;;;;;;;;;;;;-144.99;100.00;52523.50;5007853;28;19957;-66
2024/03/12 06:12:38;;;;;;;;;;;;;;;-144.99;100.00;52501.09;5003878;28;19955;-67
2024/03/12 06:15:06;;;;;;;;;;;;;;;-144.99;100.00;52541.84;5001535;28;20037;-67
2024/03/12 06:17:32;;;;;;;;;;;;;;;-144.99;100.00;52517.41;5007568;28;19946;-67
2024/03/12 06:19:59;;;;;;;;;;;;;;;-144.99;100.00;52533.69;5004961;28;19952;-70
2024/03/12 06:22:25;;;;;;;;;;;;;;;-144.99;100.00;52517.41;5004422;28;20226;-71
2024/03/12 06:24:53;;;;;;;;;;;;;;;-144.99;100.00;52521.47;5007979;28;19975;-71
2024/03/12 06:27:20;;;;;;;;;;;;;;;-144.99;100.00;52478.66;5006265;28;19932;-69
2024/03/12 06:29:49;;;;;;;;;;;;;;;-144.99;100.00;52480.72;5003539;28;19929;-71
2024/03/12 06:32:17;;;;;;;;;;;;;;;-144.99;100.00;52513.31;5003463;28;20094;-70
2024/03/12 06:34:44;;;;;;;;;;;;;;;-144.99;100.00;52497.00;5001164;28;19948;-70
2024/03/12 06:37:10;;;;;;;;;;;;;;;-144.99;100.00;52501.09;5007570;28;20170;-70
2024/03/12 06:39:37;;;;;;;;;;;;;;;-144.99;100.00;52488.84;5002228;28;20024;-73
2024/03/12 06:42:07;;;;;;;;;;;;;;;-144.99;100.00;52517.41;5006335;28;20010;-70
2024/03/12 06:44:36;;;;;;;;;;;;;;;-144.99;100.00;52537.78;5001856;28;19939;-70
2024/03/12 06:47:05;;;;;;;;;;;;;;;-144.99;100.00;52499.06;5001883;28;20055;-70
2024/03/12 06:49:33;;;;;;;;;;;;;;;-144.99;100.00;52513.31;5004296;28;19936;-69
2024/03/12 06:52:00;;;;;;;;;;;;;;;-144.99;100.00;52492.94;5005318;28;20030;-69
2024/03/12 06:54:27;;;;;;;;;;;;;;;-144.99;100.00;52525.56;5001337;28;19972;-69
2024/03/12 06:56:55;;;;;;;;;;;;;;;-144.99;100.00;52525.56;5007520;28;19940;-70
2024/03/12 06:59:24;;;;;;;;;;;;;;;-144.99;100.00;52513.31;5007298;28;19950;-70
2024/03/12 07:01:53;;;;;;;;;;;;;;;-144.99;100.00;52517.41;5005246;28;19946;-69
2024/03/12 07:04:23;;;;;;;;;;;;;;;-144.99;100.00;52521.47;5004865;28;19949;-69
2024/03/12 07:06:50;;;;;;;;;;;;;;;-144.99;100.00;52480.72;5005987;28;19943;-68
2024/03/12 07:09:26;;;;;;;;;;;;;;;-144.99;100.00;52497.00;5008461;28;20035;-68
2024/03/12 07:11:54;;;;;;;;;;;;;;;-144.99;100.00;52494.97;5011605;28;19986;-69
2024/03/12 07:14:27;;;;;;;;;;;;;;;-144.99;100.00;52488.84;5010617;28;19940;-69
2024/03/12 07:16:56;;;;;;;;;;;;;;;-144.99;100.00;52497.00;5001288;28;19951;-69
2024/03/12 07:19:22;;;;;;;;;;;;;;;-144.99;100.00;52509.25;5010763;28;19937;-68
2024/03/12 07:21:49;;;;;;;;;;;;;;;-144.99;100.00;52497.00;5011392;28;19968;-68
2024/03/12 07:24:16;;;;;;;;;;;;;;;-144.99;100.00;52501.09;5011069;28;20400;-68
2024/03/12 07:26:43;;;;;;;;;;;;;;;-144.99;100.00;52511.28;5007654;28;19989;-67
2024/03/12 07:29:09;;;;;;;;;;;;;;;-144.99;100.00;52497.00;5010670;28;19958;-64
2024/03/12 07:31:36;;;;;;;;;;;;;;;-144.99;100.00;52503.13;5006710;28;19970;-64
2024/03/12 07:34:05;;;;;;;;;;;;;;;-144.99;100.00;52521.47;5001752;28;20755;-64
2024/03/12 07:36:32;;;;;;;;;;;;;;;-144.99;100.00;52521.47;5011849;28;19936;-64
2024/03/12 07:38:59;;;;;;;;;;;;;;;-144.99;100.00;52523.50;5008465;28;19967;-64
2024/03/12 07:41:26;;;;;;;;;;;;;;;-144.99;100.00;52492.94;5003285;28;19998;-64
2024/03/12 07:43:52;;;;;;;;;;;;;;;-144.99;100.00;52525.56;5008555;28;19976;-66
2024/03/12 07:46:19;;;;;;;;;;;;;;;-144.99;100.00;52494.97;5011003;28;20311;-66
2024/03/12 07:48:45;;;;;;;;;;;;;;;-144.99;100.00;52517.41;5007778;28;20169;-66
2024/03/12 07:51:13;;;;;;;;;;;;;;;-144.99;100.00;52497.00;5006465;28;20365;-66
2024/03/12 07:53:40;;;;;;;;;;;;;;;-144.99;100.00;52494.97;5009550;28;20457;-67
2024/03/12 07:56:07;;;;;;;;;;;;;;;-144.99;100.00;52501.09;5010813;28;19979;-64
2024/03/12 07:58:35;;;;;;;;;;;;;;;-144.99;100.00;52470.50;5009489;28;20001;-71
2024/03/12 08:01:01;;;;;;;;;;;;;;;-144.99;100.00;52521.47;5005632;28;19956;-71
2024/03/12 08:03:28;;;;;;;;;;;;;;;-144.99;100.00;52476.63;5005025;28;19991;-70
2024/03/12 08:05:54;;;;;;;;;;;;;;;-144.99;100.00;52525.56;5007151;28;19925;-70
2024/03/12 08:08:22;;;;;;;;;;;;;;;-144.99;100.00;52497.00;5005359;28;19965;-70
2024/03/12 08:10:49;;;;;;;;;;;;;;;-144.99;100.00;52519.44;5005802;28;19966;-70
2024/03/12 08:13:15;;;;;;;;;;;;;;;-144.99;100.00;52450.13;5008774;28;20484;-70
2024/03/12 08:15:42;;;;;;;;;;;;;;;-144.99;100.00;52513.31;5006900;28;19966;-70
2024/03/12 08:18:09;;;;;;;;;;;;;;;-144.99;100.00;52519.44;5010459;28;20011;-70
2024/03/12 08:20:36;;;;;;;;;;;;;;;-144.99;100.00;52462.34;5009232;28;20440;-71
2024/03/12 08:23:03;;;;;;;;;;;;;;;-144.99;100.00;52509.25;5009249;28;20024;-70
2024/03/12 08:25:32;;;;;;;;;;;;;;;-144.99;100.00;52448.09;5012630;28;20385;-71
2024/03/12 08:27:58;;;;;;;;;;;;;;;-144.99;100.00;52494.97;5003621;28;19969;-71
2024/03/12 08:30:25;;;;;;;;;;;;;;;-144.99;100.00;52513.31;5010341;28;19968;-71
2024/03/12 08:32:51;;;;;;;;;;;;;;;-144.99;100.00;52480.72;5008471;28;19944;-70
2024/03/12 08:35:18;;;;;;;;;;;;;;;-144.99;100.00;52486.81;5005731;28;19991;-70
2024/03/12 08:37:45;;;;;;;;;;;;;;;-144.99;100.00;52545.94;5005319;28;19933;-70
2024/03/12 08:40:14;;;;;;;;;;;;;;;-144.99;100.00;52476.63;5010227;28;20046;-70
2024/03/12 08:42:42;;;;;;;;;;;;;;;-144.99;100.00;52505.16;5008716;28;19962;-70
2024/03/12 08:45:09;;;;;;;;;;;;;;;-144.99;100.00;52509.25;5007989;28;20188;-69
2024/03/12 08:47:38;;;;;;;;;;;;;;;-144.99;100.00;52488.84;5004647;28;19986;-70
2024/03/12 08:50:05;;;;;;;;;;;;;;;-144.99;100.00;52503.13;5010888;28;19951;-63
2024/03/12 08:52:31;;;;;;;;;;;;;;;-144.99;100.00;52480.72;5010541;28;19948;-66
2024/03/12 08:54:58;;;;;;;;;;;;;;;-144.99;100.00;52517.41;5010018;28;20422;-66
2024/03/12 08:57:25;;;;;;;;;;;;;;;-144.99;100.00;52484.78;5009915;28;20054;-67
2024/03/12 08:59:54;;;;;;;;;;;;;;;-144.99;100.00;52484.78;5005759;28;20327;-67
2024/03/12 09:02:20;;;;;;;;;;;;;;;-144.99;100.00;52480.72;5006792;28;20085;-67
2024/03/12 09:04:46;;;;;;;;;;;;;;;-144.99;100.00;52509.25;5009715;28;19949;-67
2024/03/12 09:07:13;;;;;;;;;;;;;;;-144.99;100.00;52492.94;5009583;28;19937;-67
2024/03/12 09:09:40;;;;;;;;;;;;;;;-144.99;100.00;52509.25;5005991;28;20014;-67
2024/03/12 09:12:08;;;;;;;;;;;;;;;-144.99;100.00;52494.97;5004435;28;19960;-67
2024/03/12 09:14:35;;;;;;;;;;;;;;;-144.99;100.00;52488.84;5008740;28;19957;-66
2024/03/12 09:17:05;;;;;;;;;;;;;;;-144.99;100.00;52499.06;5009637;28;19937;-66
2024/03/12 09:19:31;;;;;;;;;;;;;;;-144.99;100.00;52488.84;5006069;28;20159;-67
2024/03/12 09:21:59;;;;;;;;;;;;;;;-144.99;100.00;52460.31;5007780;28;20441;-66
2024/03/12 09:24:26;;;;;;;;;;;;;;;-144.99;100.00;52492.94;5009350;28;19936;-67
2024/03/12 09:26:53;;;;;;;;;;;;;;;-144.99;100.00;52476.63;5008808;28;19942;-67
2024/03/12 09:29:20;;;;;;;;;;;;;;;-144.99;100.00;52482.75;5009057;28;19929;-68
2024/03/12 09:31:45;;;;;;;;;;;;;;;-144.99;100.00;52460.31;5007170;28;20021;-67
2024/03/12 09:34:14;;;;;;;;;;;;;;;-144.99;100.00;52427.72;5006601;28;20418;-68
2024/03/12 09:36:41;;;;;;;;;;;;;;;-144.99;100.00;52490.91;5008959;28;20026;-67
2024/03/12 09:39:10;;;;;;;;;;;;;;;-144.99;100.00;52464.41;5001919;28;20350;-67
2024/03/12 09:41:38;;;;;;;;;;;;;;;-144.99;100.00;52464.41;5007892;28;19972;-67
2024/03/12 09:44:06;;;;;;;;;;;;;;;-144.99;100.00;52545.94;5008603;28;19944;-67
2024/03/12 09:46:32;;;;;;;;;;;;;;;-144.99;100.00;52488.84;5009674;28;19990;-67
2024/03/12 09:48:59;;;;;;;;;;;;;;;-144.99;100.00;52464.41;5001592;28;19964;-67
2024/03/12 09:51:27;;;;;;;;;;;;;;;-144.99;100.00;52488.84;5008183;28;20417;-67
2024/03/12 09:53:53;;;;;;;;;;;;;;;-144.99;100.00;52511.28;5003538;28;20015;-67
2024/03/12 09:56:20;;;;;;;;;;;;;;;-144.99;100.00;52480.72;5007023;28;20373;-67
2024/03/12 09:58:48;;;;;;;;;;;;;;;-144.99;100.00;52444.03;5007591;28;19947;-68
2024/03/12 10:01:15;;;;;;;;;;;;;;;-144.99;100.00;52466.44;5007591;28;19933;-68
2024/03/12 10:03:41;;;;;;;;;;;;;;;-144.99;100.00;52488.84;5009778;28;19953;-67
2024/03/12 10:06:09;;;;;;;;;;;;;;;-144.99;100.00;52456.25;5008599;28;20391;-67
2024/03/12 10:08:36;;;;;;;;;;;;;;;-144.99;100.00;52448.09;5005813;28;20035;-68
2024/03/12 10:11:07;;;;;;;;;;;;;;;-144.99;100.00;52472.56;5008305;28;20430;-67
2024/03/12 10:13:36;;;;;;;;;;;;;;;-144.99;100.00;52456.25;5006400;28;19958;-65
2024/03/12 10:16:03;;;;;;;;;;;;;;;-144.99;100.00;52435.88;5005105;28;19936;-66
2024/03/12 10:18:30;;;;;;;;;;;;;;;-144.99;100.00;52478.66;5001761;28;19942;-66
2024/03/12 10:20:58;;;;;;;;;;;;;;;-144.99;100.00;52441.97;5006978;28;19961;-66
2024/03/12 10:23:25;;;;;;;;;;;;;;;-144.99;100.00;52492.94;5005103;28;19961;-66
2024/03/12 10:25:53;;;;;;;;;;;;;;;-144.99;100.00;52458.28;5007245;28;20334;-66
2024/03/12 10:28:24;;;;;;;;;;;;;;;-144.99;100.00;52450.13;5007173;28;20031;-66
2024/03/12 10:30:51;;;;;;;;;;;;;;;-144.99;100.00;52439.94;5003702;28;19971;-66
2024/03/12 10:33:18;;;;;;;;;;;;;;;-144.99;100.00;52429.75;5001583;28;20011;-67
2024/03/12 10:35:45;;;;;;;;;;;;;;;-144.99;100.00;52452.16;5005448;28;19941;-66
2024/03/12 10:38:25;;;;;;;;;;;;;;;-144.99;100.00;52476.63;5007183;28;20315;-67
2024/03/12 10:40:55;;;;;;;;;;;;;;;-144.99;100.00;52452.16;5007065;28;20398;-67
2024/03/12 10:43:24;;;;;;;;;;;;;;;-144.99;100.00;52464.41;5006214;28;20182;-67
2024/03/12 10:45:50;;;;;;;;;;;;;;;-144.99;100.00;52468.47;5007107;28;19970;-67
2024/03/12 10:48:18;;;;;;;;;;;;;;;-144.99;100.00;52397.13;5006441;28;19971;-67
2024/03/12 10:50:45;;;;;;;;;;;;;;;-144.99;100.00;52444.03;5007122;28;20413;-67
2024/03/12 10:53:12;;;;;;;;;;;;;;;-144.99;100.00;52423.63;5007180;28;19982;-67
2024/03/12 10:55:39;;;;;;;;;;;;;;;-144.99;99.85;52407.31;5007195;28;20009;-67
2024/03/12 10:58:08;;;;;;;;;;;;;;;-144.99;98.58;52431.78;5007741;28;19984;-67
2024/03/12 11:00:39;;;;;;;;;;;;;;;-144.99;97.63;52439.94;5007131;28;19956;-68
2024/03/12 11:03:08;;;;;;;;;;;;;;;-144.99;97.15;52452.16;5008124;28;19963;-67
2024/03/12 11:05:35;;;;;;;;;;;;;;;-144.99;96.66;52427.72;5005168;28;19959;-68
2024/03/12 11:08:01;;;;;;;;;;;;;;;-144.99;95.71;52415.47;5006527;28;19972;-68
2024/03/12 11:10:30;;;;;;;;;;;;;;;-144.99;95.08;52431.78;5005978;28;19956;-67
2024/03/12 11:13:00;;;;;;;;;;;;;;;-144.99;94.55;52448.09;5005552;28;19929;-67
2024/03/12 11:15:28;;;;;;;;;;;;;;;-144.99;93.48;52419.56;5006052;28;19957;-67
2024/03/12 11:17:55;;;;;;;;;;;;;;;-144.99;93.21;52419.56;5004269;28;20039;-67
2024/03/12 11:20:23;;;;;;;;;;;;;;;-144.99;92.44;52380.84;5006030;28;20016;-67
2024/03/12 11:22:54;;;;;;;;;;;;;;;-144.99;92.03;52435.88;5005475;28;20032;-68
2024/03/12 11:25:27;;;;;;;;;;;;;;;-144.99;92.16;52433.81;5004896;28;19987;-68
2024/03/12 11:28:09;;;;;;;;;;;;;;;-144.99;92.11;52456.25;4998256;28;20317;-71
2024/03/12 11:30:37;;;;;;;;;;;;;;;-144.99;92.89;52458.28;5001114;28;19937;-68
2024/03/12 11:33:03;;;;;;;;;;;;;;;-144.99;93.62;52431.78;5004305;28;20170;-68
2024/03/12 11:35:32;;;;;;;;;;;;;;;-144.99;93.89;52423.63;5005683;28;19926;-68
2024/03/12 11:38:02;;;;;;;;;;;;;;;-144.99;94.20;52431.78;5005941;28;19948;-67
2024/03/12 11:40:30;;;;;;;;;;;;;;;-144.99;94.02;52466.44;5005810;28;19964;-68
2024/03/12 11:42:56;;;;;;;;;;;;;;;-144.99;93.68;52448.09;4998669;28;19945;-67
2024/03/12 11:45:37;;;;;;;;;;;;;;;-144.99;94.13;52452.16;5006078;28;19941;-67
2024/03/12 11:48:07;;;;;;;;;;;;;;;-144.99;93.64;52407.31;5006372;28;19972;-67
2024/03/12 11:50:34;;;;;;;;;;;;;;;-144.99;92.98;52433.81;5000676;28;20055;-67
2024/03/12 11:53:14;;;;;;;;;;;;;;;-144.99;92.64;52448.09;5005169;28;19955;-68
2024/03/12 11:55:55;;;;;;;;;;;;;;;-144.99;92.31;52415.47;5006215;28;19946;-68
2024/03/12 11:58:25;;;;;;;;;;;;;;;-144.99;91.46;52423.63;5008677;28;19991;-68
2024/03/12 12:00:53;;;;;;;;;;;;;;;-144.99;89.75;52423.63;5009136;28;20012;-67
2024/03/12 12:03:20;;;;;;;;;;;;;;;-144.99;89.09;52419.56;5007435;28;19929;-68
2024/03/12 12:05:47;;;;;;;;;;;;;;;-144.99;88.04;52429.75;5002785;28;19942;-67
2024/03/12 12:08:14;;;;;;;;;;;;;;;-144.99;87.48;52399.19;5007299;28;20358;-68
2024/03/12 12:10:41;;;;;;;;;;;;;;;-144.99;87.55;52425.66;5009980;28;19926;-67
2024/03/12 12:13:15;;;;;;;;;;;;;;;-144.99;87.89;52427.72;5009127;28;19932;-68
2024/03/12 12:15:41;;;;;;;;;;;;;;;-144.99;87.47;52421.59;5008733;28;20388;-68
2024/03/12 12:18:10;;;;;;;;;;;;;;;-144.99;88.13;52366.56;5010247;28;19967;-68
2024/03/12 12:20:37;;;;;;;;;;;;;;;-144.99;87.23;52415.47;5009958;28;20299;-68
2024/03/12 12:23:04;;;;;;;;;;;;;;;-144.99;86.16;52397.13;5009055;28;19926;-68
2024/03/12 12:25:30;;;;;;;;;;;;;;;-144.99;85.69;52391.03;5007292;28;19965;-68